Time;durP1;ratioP1;P1;durP2;ratioP2;P2;SDS_P1;SDS_P2;PMS_P1;PMS_P2;Temp;Humidity;BMP_temperature;BMP_pressure;BME280_temperature;BME280_humidity;BME280_pressure;Samples;Min_cycle;Max_cycle;Signal;HPM_P1;HPM_P2
2021/01/13 00:00:00;;;;;;;22.20;11.52;;;-0.60;72.70;;;;;;5093842;28;20439;-66
2021/01/13 00:02:26;;;;;;;28.02;13.32;;;-0.60;72.60;;;;;;5092329;28;20078;-66
2021/01/13 00:04:52;;;;;;;24.17;12.10;;;-0.60;72.80;;;;;;5093939;28;20012;-66
2021/01/13 00:07:18;;;;;;;21.50;11.50;;;-0.60;72.90;;;;;;5093848;28;20519;-66
2021/01/13 00:09:44;;;;;;;28.80;12.45;;;-0.60;72.90;;;;;;5093866;28;20069;-67
2021/01/13 00:12:10;;;;;;;24.27;12.35;;;-0.60;72.90;;;;;;5092306;28;20165;-68
2021/01/13 00:14:37;;;;;;;22.75;12.07;;;-0.60;73.00;;;;;;5093951;28;20024;-67
2021/01/13 00:17:05;;;;;;;25.50;12.93;;;-0.60;73.00;;;;;;5092457;28;20114;-66
2021/01/13 00:19:31;;;;;;;29.42;14.40;;;-0.50;73.10;;;;;;5092225;28;20028;-67
2021/01/13 00:21:57;;;;;;;23.08;11.52;;;-0.60;73.10;;;;;;5093532;28;20493;-67
2021/01/13 00:24:24;;;;;;;29.25;13.80;;;-0.50;73.10;;;;;;5093508;28;20050;-67
2021/01/13 00:26:55;;;;;;;25.52;12.38;;;-0.50;73.10;;;;;;5093458;28;20539;-67
2021/01/13 00:29:21;;;;;;;25.30;13.02;;;-0.50;73.10;;;;;;5093546;28;20462;-67
2021/01/13 00:31:47;;;;;;;24.45;12.93;;;-0.50;73.10;;;;;;5093361;28;20099;-66
2021/01/13 00:34:15;;;;;;;27.75;14.07;;;-0.50;73.10;;;;;;5092113;28;20028;-66
2021/01/13 00:36:41;;;;;;;21.98;11.90;;;-0.60;73.00;;;;;;5091873;28;20024;-66
2021/01/13 00:39:07;;;;;;;25.85;13.70;;;-0.60;73.10;;;;;;5093743;28;20413;-67
2021/01/13 00:41:37;;;;;;;23.35;12.88;;;-0.60;73.30;;;;;;5091814;28;20093;-68
2021/01/13 00:44:03;;;;;;;28.05;12.77;;;-0.60;73.50;;;;;;5091789;28;20024;-67
2021/01/13 00:46:35;;;;;;;27.25;13.88;;;-0.60;73.50;;;;;;5092246;28;20028;-67
2021/01/13 00:49:01;;;;;;;21.83;12.02;;;-0.60;73.60;;;;;;5092011;28;20039;-67
2021/01/13 00:51:38;;;;;;;28.10;13.80;;;-0.60;73.50;;;;;;5093463;28;20107;-67
2021/01/13 00:54:05;;;;;;;28.08;14.15;;;-0.60;73.70;;;;;;5092827;28;20024;-67
2021/01/13 00:56:31;;;;;;;20.83;10.57;;;-0.60;73.80;;;;;;5093144;28;20028;-67
2021/01/13 00:58:58;;;;;;;24.00;12.60;;;-0.60;73.70;;;;;;5091961;28;20024;-67
2021/01/13 01:01:26;;;;;;;26.60;14.48;;;-0.60;73.80;;;;;;5091710;28;20055;-67
2021/01/13 01:03:53;;;;;;;29.58;13.73;;;-0.60;73.90;;;;;;5091467;28;20028;-67
2021/01/13 01:06:19;;;;;;;31.95;15.02;;;-0.60;74.00;;;;;;5093305;28;20028;-67
2021/01/13 01:08:44;;;;;;;26.67;13.30;;;-0.60;74.10;;;;;;5091625;28;20081;-68
2021/01/13 01:11:11;;;;;;;24.77;12.20;;;-0.60;74.10;;;;;;5092885;28;20161;-67
2021/01/13 01:13:37;;;;;;;27.25;13.77;;;-0.60;74.10;;;;;;5091971;28;20028;-67
2021/01/13 01:16:04;;;;;;;30.13;14.40;;;-0.60;74.20;;;;;;5091489;28;20024;-67
2021/01/13 01:18:29;;;;;;;26.02;13.60;;;-0.60;74.80;;;;;;5091784;28;20028;-67
2021/01/13 01:20:55;;;;;;;30.23;13.45;;;-0.60;74.20;;;;;;5092778;28;20032;-67
2021/01/13 01:23:21;;;;;;;27.65;13.80;;;-0.60;74.90;;;;;;5091363;28;20028;-67
2021/01/13 01:25:46;;;;;;;22.95;10.77;;;-0.60;74.30;;;;;;5092807;28;20062;-67
2021/01/13 01:28:12;;;;;;;26.27;12.32;;;-0.60;74.20;;;;;;5092478;28;20058;-67
2021/01/13 01:30:38;;;;;;;28.02;13.50;;;-0.60;74.20;;;;;;5093204;28;20024;-67
2021/01/13 01:33:04;;;;;;;26.63;12.82;;;-0.60;74.30;;;;;;5092815;28;20028;-68
2021/01/13 01:35:29;;;;;;;21.83;11.98;;;-0.60;74.30;;;;;;5091590;28;20024;-67
2021/01/13 01:37:55;;;;;;;29.40;14.75;;;-0.60;74.30;;;;;;5092599;28;20102;-67
2021/01/13 01:40:21;;;;;;;30.70;14.50;;;-0.60;74.40;;;;;;5091189;28;20024;-67
2021/01/13 01:42:52;;;;;;;26.17;14.05;;;-0.60;74.40;;;;;;5091769;28;20028;-67
2021/01/13 01:45:21;;;;;;;29.52;13.73;;;-0.60;74.40;;;;;;5091508;28;20040;-67
2021/01/13 01:48:02;;;;;;;27.17;12.98;;;-0.60;74.50;;;;;;5093076;28;20060;-67
2021/01/13 01:50:31;;;;;;;26.55;13.55;;;-0.60;74.50;;;;;;5095093;28;20039;-68
2021/01/13 01:53:21;;;;;;;25.42;12.50;;;-0.60;74.40;;;;;;5095681;28;20031;-67
2021/01/13 01:55:56;;;;;;;29.38;14.82;;;-0.60;74.40;;;;;;5067394;28;20032;-68
2021/01/13 01:58:27;;;;;;;29.17;14.82;;;-0.70;74.60;;;;;;5096395;28;20501;-67
2021/01/13 02:00:55;;;;;;;29.38;14.70;;;-0.70;74.60;;;;;;5094495;28;20065;-67
2021/01/13 02:03:23;;;;;;;26.58;13.20;;;-0.60;74.80;;;;;;5096295;28;20093;-67
2021/01/13 02:05:56;;;;;;;23.73;11.70;;;-0.60;74.70;;;;;;5094721;28;20027;-67
2021/01/13 02:08:22;;;;;;;27.58;12.50;;;-0.60;74.60;;;;;;5095210;28;20054;-67
2021/01/13 02:10:48;;;;;;;32.40;14.48;;;-0.70;74.50;;;;;;5094950;28;20024;-67
2021/01/13 02:13:15;;;;;;;32.05;15.35;;;-0.70;74.70;;;;;;5094941;28;20020;-67
2021/01/13 02:15:41;;;;;;;29.95;14.43;;;-0.70;74.70;;;;;;5094420;28;20028;-66
2021/01/13 02:18:14;;;;;;;37.53;16.45;;;-0.70;74.80;;;;;;5094743;28;20020;-67
2021/01/13 02:20:40;;;;;;;30.42;14.82;;;-0.70;75.00;;;;;;5094909;28;20067;-67
2021/01/13 02:23:10;;;;;;;30.52;13.63;;;-0.70;75.10;;;;;;5095742;28;20490;-67
2021/01/13 02:25:58;;;;;;;31.27;14.30;;;-0.60;75.00;;;;;;5094826;28;20038;-67
2021/01/13 02:28:26;;;;;;;35.17;15.38;;;-0.70;74.80;;;;;;5095588;28;20023;-67
2021/01/13 02:31:04;;;;;;;27.55;13.95;;;-0.70;74.70;;;;;;5094744;28;20031;-67
2021/01/13 02:33:40;;;;;;;32.22;14.82;;;-0.70;74.70;;;;;;5094445;28;20427;-67
2021/01/13 02:36:28;;;;;;;28.33;13.80;;;-0.70;74.80;;;;;;5095529;28;20103;-67
2021/01/13 02:38:57;;;;;;;30.30;14.68;;;-0.70;74.80;;;;;;5081933;28;20052;-67
2021/01/13 02:41:34;;;;;;;33.13;16.65;;;-0.70;74.90;;;;;;5094776;28;20055;-67
2021/01/13 02:44:04;;;;;;;31.25;16.15;;;-0.70;75.10;;;;;;5097266;28;20020;-67
2021/01/13 02:46:58;;;;;;;46.53;23.33;;;-0.60;75.30;;;;;;5094372;28;20028;-67
2021/01/13 02:49:37;;;;;;;80.68;45.88;;;-0.60;75.20;;;;;;5084473;28;20102;-67
2021/01/13 02:52:23;;;;;;;65.53;35.22;;;-0.60;75.40;;;;;;5093790;28;20111;-67
2021/01/13 02:54:55;;;;;;;;;;;-0.60;75.30;;;;;;5093015;28;20397;-68
2021/01/13 02:57:27;;;;;;;48.85;23.85;;;-0.60;75.00;;;;;;5093748;28;19908;-67
2021/01/13 02:59:56;;;;;;;30.15;13.38;;;-0.60;75.20;;;;;;5093716;28;20016;-67
2021/01/13 03:02:36;;;;;;;32.83;14.13;;;-0.60;75.00;;;;;;5093495;28;20517;-67
2021/01/13 03:05:03;;;;;;;36.50;17.25;;;-0.60;75.00;;;;;;5094177;28;20062;-67
2021/01/13 03:07:36;;;;;;;37.30;17.30;;;-0.70;75.00;;;;;;5094882;28;20052;-67
2021/01/13 03:10:12;;;;;;;35.55;18.73;;;-0.70;75.20;;;;;;5093517;28;20497;-67
2021/01/13 03:12:41;;;;;;;32.95;17.45;;;-0.70;75.40;;;;;;5093844;28;20035;-67
2021/01/13 03:15:08;;;;;;;38.53;19.50;;;-0.70;75.20;;;;;;5093871;28;20519;-67
2021/01/13 03:17:34;;;;;;;31.27;16.10;;;-0.70;75.30;;;;;;5093902;28;20028;-67
2021/01/13 03:20:19;;;;;;;34.08;15.43;;;-0.70;75.40;;;;;;5093056;28;20501;-67
2021/01/13 03:23:12;;;;;;;30.05;14.32;;;-0.70;75.40;;;;;;5093477;28;20089;-67
2021/01/13 03:25:49;;;;;;;31.65;18.52;;;-0.70;75.40;;;;;;5093679;28;20024;-67
2021/01/13 03:28:19;;;;;;;36.60;19.35;;;-0.70;75.60;;;;;;5093204;28;20470;-67
2021/01/13 03:30:49;;;;;;;31.90;17.50;;;-0.70;75.60;;;;;;5093265;28;20020;-67
2021/01/13 03:33:24;;;;;;;37.58;15.95;;;-0.70;75.60;;;;;;5094595;28;20062;-66
2021/01/13 03:36:08;;;;;;;32.65;17.30;;;-0.70;75.60;;;;;;5092974;28;20044;-67
2021/01/13 03:38:42;;;;;;;33.22;18.20;;;-0.70;75.70;;;;;;5093099;28;20130;-67
2021/01/13 03:41:08;;;;;;;30.27;15.32;;;-0.70;75.70;;;;;;5094335;28;20024;-66
2021/01/13 03:43:38;;;;;;;34.30;17.67;;;-0.70;75.60;;;;;;5092979;28;20026;-67
2021/01/13 03:46:09;;;;;;;41.92;23.55;;;-0.70;75.60;;;;;;5094304;28;20130;-65
2021/01/13 03:48:47;;;;;;;26.33;13.70;;;-0.70;75.70;;;;;;5094196;28;20024;-66
2021/01/13 03:51:25;;;;;;;33.70;17.02;;;-0.70;75.60;;;;;;5094303;28;20024;-71
2021/01/13 03:53:59;;;;;;;83.82;45.30;;;-0.70;75.70;;;;;;5092530;28;20107;-67
2021/01/13 03:56:26;;;;;;;65.03;37.72;;;-0.70;75.70;;;;;;5094326;28;20093;-66
2021/01/13 03:58:53;;;;;;;60.08;32.30;;;-0.60;75.90;;;;;;5093880;28;20485;-66
2021/01/13 04:01:22;;;;;;;47.40;30.00;;;-0.60;75.70;;;;;;5093752;28;20056;-67
2021/01/13 04:04:06;;;;;;;62.40;37.55;;;-0.60;75.70;;;;;;5093854;28;20024;-67
2021/01/13 04:06:43;;;;;;;49.20;26.33;;;-0.60;75.70;;;;;;5093879;28;20047;-67
2021/01/13 04:09:11;;;;;;;57.58;32.95;;;-0.60;75.60;;;;;;5092600;28;20032;-67
2021/01/13 04:11:37;;;;;;;39.55;20.13;;;-0.60;75.90;;;;;;5092385;28;20474;-69
2021/01/13 04:14:04;;;;;;;50.92;22.67;;;-0.50;76.00;;;;;;5093351;28;20032;-69
2021/01/13 04:16:36;;;;;;;45.15;22.38;;;-0.50;76.10;;;;;;5092503;28;20028;-69
2021/01/13 04:19:04;;;;;;;49.25;30.55;;;-0.50;76.10;;;;;;5092604;28;20071;-70
2021/01/13 04:21:30;;;;;;;56.47;30.83;;;-0.50;75.80;;;;;;5093733;28;20028;-69
2021/01/13 04:24:00;;;;;;;37.53;19.55;;;-0.50;76.00;;;;;;5093454;28;20070;-69
2021/01/13 04:26:28;;;;;;;50.28;28.20;;;-0.50;76.30;;;;;;5093531;28;20016;-69
2021/01/13 04:28:53;;;;;;;66.45;36.40;;;-0.40;76.30;;;;;;5093571;28;20027;-69
2021/01/13 04:31:19;;;;;;;44.63;21.90;;;-0.50;76.30;;;;;;5092148;28;20024;-69
2021/01/13 04:33:46;;;;;;;35.58;16.75;;;-0.40;76.60;;;;;;5093794;28;20471;-69
2021/01/13 04:36:13;;;;;;;35.47;17.77;;;-0.40;76.60;;;;;;5091784;28;20442;-69
2021/01/13 04:38:39;;;;;;;35.65;16.58;;;-0.40;76.50;;;;;;5093445;28;20069;-69
2021/01/13 04:41:10;;;;;;;38.13;17.23;;;-0.40;76.50;;;;;;5093267;28;20475;-69
2021/01/13 04:43:53;;;;;;;35.05;16.65;;;-0.40;76.50;;;;;;5093305;28;20105;-69
2021/01/13 04:46:30;;;;;;;34.97;16.45;;;-0.40;76.70;;;;;;5091835;28;20048;-70
2021/01/13 04:49:07;;;;;;;37.60;15.93;;;-0.40;76.60;;;;;;5092021;28;20066;-69
2021/01/13 04:51:42;;;;;;;32.13;15.85;;;-0.40;76.80;;;;;;5091942;28;20067;-68
2021/01/13 04:54:16;;;;;;;40.88;18.23;;;-0.50;76.80;;;;;;5091547;28;20016;-66
2021/01/13 04:56:44;;;;;;;37.10;17.05;;;-0.50;76.80;;;;;;5091615;28;20028;-67
2021/01/13 04:59:13;;;;;;;36.08;18.10;;;-0.50;76.90;;;;;;5093182;28;20055;-67
2021/01/13 05:01:57;;;;;;;34.78;17.02;;;-0.50;76.80;;;;;;5091277;28;20144;-67
2021/01/13 05:05:00;;;;;;;39.58;18.88;;;-0.60;76.90;;;;;;5089921;28;20428;-67
2021/01/13 05:07:29;;;;;;;38.67;16.67;;;-0.60;77.10;;;;;;5088964;28;20685;-68
2021/01/13 05:09:59;;;;;;;42.70;17.92;;;-0.60;77.30;;;;;;5089500;28;20466;-68
2021/01/13 05:12:48;;;;;;;43.30;19.13;;;-0.70;77.40;;;;;;5092198;28;20058;-67
2021/01/13 05:15:19;;;;;;;46.40;17.88;;;-0.70;77.70;;;;;;5079689;28;20028;-67
2021/01/13 05:18:11;;;;;;;43.03;19.55;;;-0.70;77.90;;;;;;5091506;28;20024;-68
2021/01/13 05:20:53;;;;;;;43.28;19.20;;;-0.70;78.30;;;;;;5092917;28;20032;-67
2021/01/13 05:23:22;;;;;;;39.78;17.92;;;-0.70;78.30;;;;;;5092163;28;20032;-69
2021/01/13 05:25:52;;;;;;;45.10;18.25;;;-0.70;78.40;;;;;;5096054;28;20036;-72
2021/01/13 05:28:27;;;;;;;46.17;19.73;;;-0.70;78.70;;;;;;5082758;28;20035;-69
2021/01/13 05:30:56;;;;;;;40.65;18.40;;;-0.70;78.80;;;;;;5094152;28;20375;-69
2021/01/13 05:33:24;;;;;;;60.97;22.52;;;-0.60;78.90;;;;;;5093045;28;20114;-69
2021/01/13 05:35:53;;;;;;;50.95;21.17;;;-0.70;78.90;;;;;;5094987;28;20032;-71
2021/01/13 05:38:55;;;;;;;54.75;23.77;;;-0.70;79.00;;;;;;5095254;28;20355;-68
2021/01/13 05:41:21;;;;;;;42.08;19.13;;;-0.70;79.10;;;;;;5095200;28;20032;-69
2021/01/13 05:43:49;;;;;;;44.65;19.48;;;-0.70;79.00;;;;;;5093142;28;20016;-69
2021/01/13 05:46:17;;;;;;;49.90;20.15;;;-0.70;79.20;;;;;;5082173;28;20028;-69
2021/01/13 05:48:47;;;;;;;47.13;19.13;;;-0.70;79.40;;;;;;5096482;28;20024;-66
2021/01/13 05:51:14;;;;;;;43.63;19.42;;;-0.70;79.50;;;;;;5095328;28;20027;-69
2021/01/13 05:53:50;;;;;;;103.35;34.00;;;-0.70;79.50;;;;;;5094724;28;20020;-69
2021/01/13 05:56:19;;;;;;;94.47;33.63;;;-0.70;79.70;;;;;;5096378;28;20028;-72
2021/01/13 05:58:46;;;;;;;48.15;20.38;;;-0.70;79.80;;;;;;5095915;28;20492;-70
2021/01/13 06:01:40;;;;;;;37.28;17.77;;;-0.70;79.80;;;;;;5094312;28;20044;-66
2021/01/13 06:04:06;;;;;;;42.20;18.58;;;-0.70;80.00;;;;;;5093567;28;20027;-67
2021/01/13 06:06:45;;;;;;;44.20;19.65;;;-0.70;79.80;;;;;;5093081;28;20031;-67
2021/01/13 06:09:11;;;;;;;40.97;18.67;;;-0.70;80.10;;;;;;5094410;28;20086;-68
2021/01/13 06:11:42;;;;;;;39.90;16.00;;;-0.70;80.10;;;;;;5095870;28;20035;-67
2021/01/13 06:14:09;;;;;;;39.15;17.17;;;-0.70;80.90;;;;;;5095192;28;20066;-68
2021/01/13 06:16:36;;;;;;;37.90;16.58;;;-0.70;80.30;;;;;;5093448;28;20423;-67
2021/01/13 06:19:02;;;;;;;34.22;15.90;;;-0.70;80.20;;;;;;5095219;28;20080;-69
2021/01/13 06:21:28;;;;;;;34.25;16.48;;;-0.70;80.40;;;;;;5092713;28;20055;-68
2021/01/13 06:23:54;;;;;;;33.38;15.73;;;-0.70;80.60;;;;;;5083499;28;20471;-68
2021/01/13 06:26:20;;;;;;;35.65;16.00;;;-0.60;80.80;;;;;;5081869;28;20077;-67
2021/01/13 06:28:58;;;;;;;35.88;15.95;;;-0.60;80.70;;;;;;5084887;28;20036;-66
2021/01/13 06:31:25;;;;;;;34.38;15.60;;;-0.60;80.80;;;;;;5095092;28;20024;-68
2021/01/13 06:34:18;;;;;;;34.78;15.50;;;-0.50;80.60;;;;;;5084540;28;20052;-68
2021/01/13 06:37:02;;;;;;;34.60;16.17;;;-0.50;80.70;;;;;;5088316;28;20024;-68
2021/01/13 06:39:33;;;;;;;32.15;15.88;;;-0.60;80.60;;;;;;5095130;28;20106;-68
2021/01/13 06:41:59;;;;;;;34.88;16.10;;;-0.60;80.70;;;;;;5089495;28;20036;-68
2021/01/13 06:44:25;;;;;;;39.38;16.60;;;-0.50;80.70;;;;;;5083318;28;20029;-73
2021/01/13 06:46:53;;;;;;;33.13;15.15;;;-0.50;80.80;;;;;;5082768;28;20036;-68
2021/01/13 06:49:21;;;;;;;30.75;13.88;;;-0.50;80.60;;;;;;5089061;28;20020;-69
2021/01/13 06:51:51;;;;;;;30.02;14.68;;;-0.50;80.60;;;;;;5090961;28;20390;-69
2021/01/13 06:54:19;;;;;;;32.63;15.85;;;-0.50;80.80;;;;;;5091997;28;20127;-70
2021/01/13 06:56:56;;;;;;;33.65;15.15;;;-0.50;80.90;;;;;;5106249;28;20500;-70
2021/01/13 06:59:23;;;;;;;43.88;18.05;;;-0.50;81.00;;;;;;5093233;28;20070;-68
2021/01/13 07:01:56;;;;;;;40.95;17.55;;;-0.40;81.00;;;;;;5094237;28;20405;-70
2021/01/13 07:04:23;;;;;;;44.45;20.05;;;-0.40;81.10;;;;;;5091789;28;20017;-69
2021/01/13 07:07:07;;;;;;;44.95;19.13;;;-0.40;81.10;;;;;;5094422;28;20054;-68
2021/01/13 07:09:40;;;;;;;38.38;18.33;;;-0.40;81.10;;;;;;5094972;28;20024;-71
2021/01/13 07:12:19;;;;;;;41.75;17.67;;;-0.40;81.20;;;;;;5094845;28;20359;-72
2021/01/13 07:14:47;;;;;;;44.92;20.65;;;-0.40;81.10;;;;;;5094780;28;20082;-70
2021/01/13 07:17:21;;;;;;;45.67;20.27;;;-0.40;81.20;;;;;;5086845;28;20090;-70
2021/01/13 07:19:49;;;;;;;37.45;18.73;;;-0.30;81.40;;;;;;5093604;28;20413;-66
2021/01/13 07:22:18;;;;;;;32.42;15.55;;;-0.30;81.60;;;;;;5087393;28;20060;-69
2021/01/13 07:24:45;;;;;;;26.33;12.38;;;-0.30;81.50;;;;;;5094294;28;20029;-69
2021/01/13 07:27:13;;;;;;;24.52;11.82;;;-0.20;81.40;;;;;;5094407;28;20024;-66
2021/01/13 07:29:39;;;;;;;21.40;11.07;;;-0.20;81.60;;;;;;5094392;28;20470;-68
2021/01/13 07:32:07;;;;;;;27.08;10.48;;;-0.10;81.40;;;;;;5099418;28;20032;-73
2021/01/13 07:34:42;;;;;;;26.58;12.77;;;-0.10;81.20;;;;;;5092924;28;20143;-67
2021/01/13 07:37:11;;;;;;;24.80;12.00;;;-0.10;81.20;;;;;;5093678;28;20047;-72
2021/01/13 07:39:40;;;;;;;20.77;10.55;;;0.00;81.20;;;;;;5097522;28;20028;-67
2021/01/13 07:42:33;;;;;;;26.70;11.48;;;0.00;80.90;;;;;;5084214;28;20032;-74
2021/01/13 07:45:04;;;;;;;23.45;11.00;;;0.00;81.20;;;;;;5093804;28;20108;-69
2021/01/13 07:47:39;;;;;;;29.17;13.35;;;0.00;80.90;;;;;;5093029;28;20035;-67
2021/01/13 07:50:09;;;;;;;45.45;16.67;;;-0.10;80.60;;;;;;5076791;28;20080;-67
2021/01/13 07:52:45;;;;;;;73.60;23.75;;;-0.10;81.00;;;;;;5092788;28;20024;-69
2021/01/13 07:55:22;;;;;;;95.47;33.42;;;0.00;81.40;;;;;;5090832;28;20027;-69
2021/01/13 07:57:48;;;;;;;68.88;27.90;;;0.10;81.40;;;;;;5093881;28;20028;-68
2021/01/13 08:00:28;;;;;;;51.40;22.35;;;0.10;81.20;;;;;;5092319;28;20024;-68
2021/01/13 08:03:18;;;;;;;35.97;16.75;;;0.10;81.20;;;;;;5093227;28;20045;-70
2021/01/13 08:06:21;;;;;;;24.45;12.10;;;0.20;81.80;;;;;;5090251;28;20355;-68
2021/01/13 08:09:06;;;;;;;21.30;10.98;;;0.20;80.90;;;;;;5093797;28;20031;-69
2021/01/13 08:11:41;;;;;;;26.38;12.93;;;0.20;80.50;;;;;;5082231;28;20024;-68
2021/01/13 08:14:21;;;;;;;33.80;14.68;;;0.20;80.80;;;;;;5093238;28;20059;-68
2021/01/13 08:16:50;;;;;;;26.08;12.95;;;0.30;81.20;;;;;;5093880;28;20088;-69
2021/01/13 08:20:04;;;;;;;36.42;14.35;;;0.30;80.90;;;;;;5093833;28;20409;-68
2021/01/13 08:22:30;;;;;;;24.15;13.30;;;0.40;81.70;;;;;;5076592;28;20044;-70
2021/01/13 08:25:11;;;;;;;18.75;10.82;;;0.40;80.60;;;;;;5093851;28;20069;-68
2021/01/13 08:27:37;;;;;;;19.75;9.85;;;0.40;80.40;;;;;;5093512;28;20028;-67
2021/01/13 08:30:04;;;;;;;17.20;9.98;;;0.30;80.30;;;;;;5093281;28;20020;-67
2021/01/13 08:32:41;;;;;;;17.05;9.48;;;0.40;80.60;;;;;;5092079;28;20035;-68
2021/01/13 08:35:10;;;;;;;14.27;8.50;;;0.40;80.40;;;;;;5078642;28;20355;-67
2021/01/13 08:37:37;;;;;;;25.88;9.27;;;0.40;80.20;;;;;;5093489;28;20031;-67
2021/01/13 08:40:25;;;;;;;17.00;8.90;;;0.40;80.20;;;;;;5092885;28;20031;-68
2021/01/13 08:43:07;;;;;;;15.45;9.00;;;0.40;80.40;;;;;;5093107;28;20105;-68
2021/01/13 08:45:38;;;;;;;16.52;8.93;;;0.40;80.40;;;;;;5093533;28;20035;-68
2021/01/13 08:48:12;;;;;;;12.88;7.93;;;0.40;80.00;;;;;;5093057;28;20366;-69
2021/01/13 08:50:39;;;;;;;14.48;8.15;;;0.40;80.00;;;;;;5092380;28;20024;-68
2021/01/13 08:53:06;;;;;;;16.77;9.70;;;0.40;79.70;;;;;;5093046;28;20529;-68
2021/01/13 08:55:34;;;;;;;17.65;9.15;;;0.40;80.40;;;;;;5091749;28;20016;-68
2021/01/13 08:58:08;;;;;;;14.50;8.23;;;0.40;80.30;;;;;;5092712;28;20030;-68
2021/01/13 09:00:37;;;;;;;16.98;9.18;;;0.40;80.30;;;;;;5079333;28;20492;-68
2021/01/13 09:03:10;;;;;;;16.05;8.88;;;0.40;80.00;;;;;;5093519;28;20060;-68
2021/01/13 09:05:41;;;;;;;18.67;9.45;;;0.40;79.80;;;;;;5091522;28;20143;-68
2021/01/13 09:08:11;;;;;;;18.58;9.43;;;0.30;79.60;;;;;;5092879;28;20024;-68
2021/01/13 09:10:50;;;;;;;17.92;9.15;;;0.30;79.80;;;;;;5091706;28;20024;-68
2021/01/13 09:13:38;;;;;;;18.85;10.25;;;0.40;80.30;;;;;;5092204;28;20035;-68
2021/01/13 09:16:22;;;;;;;72.35;24.05;;;0.50;80.20;;;;;;5092886;28;20020;-68
2021/01/13 09:18:56;;;;;;;63.15;22.73;;;0.50;79.90;;;;;;5092739;28;20150;-68
2021/01/13 09:21:29;;;;;;;29.58;13.68;;;0.50;80.00;;;;;;5092654;28;20028;-67
2021/01/13 09:23:56;;;;;;;24.05;11.70;;;0.60;79.90;;;;;;5092921;28;20035;-68
2021/01/13 09:26:32;;;;;;;21.92;11.18;;;0.70;80.40;;;;;;5091427;28;20043;-67
2021/01/13 09:29:06;;;;;;;25.70;11.25;;;0.70;80.00;;;;;;5092757;28;20386;-68
2021/01/13 09:31:32;;;;;;;19.73;9.65;;;0.80;80.20;;;;;;5092987;28;20489;-68
2021/01/13 09:33:59;;;;;;;21.52;9.88;;;0.90;79.50;;;;;;5091774;28;20031;-70
2021/01/13 09:36:25;;;;;;;23.17;10.80;;;0.80;79.20;;;;;;5091321;28;20028;-68
2021/01/13 09:39:09;;;;;;;17.52;8.40;;;0.90;79.40;;;;;;5090794;28;20078;-68
2021/01/13 09:41:40;;;;;;;15.02;8.23;;;1.00;79.60;;;;;;5092408;28;20103;-69
2021/01/13 09:44:13;;;;;;;14.02;7.53;;;1.00;79.30;;;;;;5092749;28;20058;-67
2021/01/13 09:46:40;;;;;;;18.25;9.77;;;1.10;79.30;;;;;;5092526;28;20572;-69
2021/01/13 09:49:11;;;;;;;18.95;9.73;;;1.20;79.40;;;;;;5092828;28;20038;-69
2021/01/13 09:51:38;;;;;;;13.25;7.53;;;1.30;79.40;;;;;;5092427;28;20032;-69
2021/01/13 09:54:06;;;;;;;12.35;7.03;;;1.30;78.80;;;;;;5092377;28;20035;-68
2021/01/13 09:56:34;;;;;;;19.92;7.00;;;1.40;78.50;;;;;;5091199;28;20027;-68
2021/01/13 09:59:02;;;;;;;11.55;6.38;;;1.40;78.50;;;;;;5092439;28;20021;-68
2021/01/13 10:01:31;;;;;;;12.32;6.40;;;1.40;78.10;;;;;;5092383;28;20080;-70
2021/01/13 10:03:58;;;;;;;13.40;7.13;;;1.40;77.70;;;;;;5092231;28;20095;-69
2021/01/13 10:06:31;;;;;;;16.33;8.80;;;1.40;77.80;;;;;;5090981;28;20028;-68
2021/01/13 10:09:09;;;;;;;15.68;8.02;;;1.40;77.90;;;;;;5092914;28;20028;-68
2021/01/13 10:11:36;;;;;;;14.98;7.47;;;1.40;77.70;;;;;;5095111;28;20036;-68
2021/01/13 10:14:04;;;;;;;11.68;6.80;;;1.40;77.50;;;;;;5095874;28;20107;-67
2021/01/13 10:16:30;;;;;;;12.98;7.25;;;1.50;77.50;;;;;;5096054;28;20016;-67
2021/01/13 10:19:02;;;;;;;21.17;9.75;;;1.50;77.40;;;;;;5095726;28;20411;-68
2021/01/13 10:21:37;;;;;;;17.73;9.25;;;1.50;77.10;;;;;;5095877;28;20020;-69
2021/01/13 10:24:08;;;;;;;17.48;9.48;;;1.50;77.30;;;;;;5095765;28;20024;-69
2021/01/13 10:26:38;;;;;;;13.25;7.57;;;1.60;77.60;;;;;;5094475;28;20454;-69
2021/01/13 10:29:05;;;;;;;13.80;7.40;;;1.70;77.20;;;;;;5095854;28;20409;-68
2021/01/13 10:31:33;;;;;;;11.63;6.63;;;1.70;76.60;;;;;;5095469;28;20020;-69
2021/01/13 10:33:59;;;;;;;15.13;8.20;;;1.60;76.20;;;;;;5094286;28;20111;-69
2021/01/13 10:36:33;;;;;;;16.95;8.43;;;1.60;76.30;;;;;;5095885;28;20108;-68
2021/01/13 10:39:03;;;;;;;20.33;10.02;;;1.50;75.90;;;;;;5094635;28;20459;-69
2021/01/13 10:41:30;;;;;;;16.80;7.65;;;1.50;76.00;;;;;;5095249;28;20024;-69
2021/01/13 10:44:04;;;;;;;15.52;8.27;;;1.40;75.70;;;;;;5095193;28;20035;-68
2021/01/13 10:46:56;;;;;;;13.95;7.78;;;1.30;75.80;;;;;;5095666;28;20082;-68
2021/01/13 10:49:24;;;;;;;11.85;7.18;;;1.20;75.80;;;;;;5095659;28;20036;-68
2021/01/13 10:51:54;;;;;;;12.70;6.85;;;1.20;75.90;;;;;;5094676;28;20032;-68
2021/01/13 10:54:26;;;;;;;12.52;7.63;;;1.20;75.90;;;;;;5095084;28;20378;-68
2021/01/13 10:57:13;;;;;;;13.65;7.07;;;1.10;75.80;;;;;;5095346;28;20051;-68
2021/01/13 10:59:42;;;;;;;10.85;6.38;;;1.00;75.40;;;;;;5095420;28;20024;-69
2021/01/13 11:02:09;;;;;;;13.88;7.40;;;1.00;75.50;;;;;;5094287;28;20052;-68
2021/01/13 11:04:44;;;;;;;12.48;6.72;;;0.90;75.80;;;;;;5095133;28;20047;-68
2021/01/13 11:07:16;;;;;;;15.75;7.65;;;0.90;75.50;;;;;;5094923;28;20028;-68
2021/01/13 11:09:43;;;;;;;15.50;8.15;;;0.80;75.20;;;;;;5093900;28;20032;-68
2021/01/13 11:12:10;;;;;;;14.07;7.72;;;0.80;75.30;;;;;;5095025;28;20032;-68
2021/01/13 11:14:40;;;;;;;15.43;7.28;;;0.70;75.60;;;;;;5094741;28;20390;-68
2021/01/13 11:17:12;;;;;;;13.23;7.35;;;0.70;75.70;;;;;;5093356;28;20028;-68
2021/01/13 11:19:41;;;;;;;11.05;6.47;;;0.70;76.00;;;;;;5094797;28;20020;-68
2021/01/13 11:22:07;;;;;;;13.10;6.45;;;0.60;75.70;;;;;;5093311;28;20178;-68
2021/01/13 11:24:44;;;;;;;11.63;6.47;;;0.60;75.70;;;;;;5094622;28;20091;-68
2021/01/13 11:27:14;;;;;;;13.20;7.05;;;0.60;75.80;;;;;;5093505;28;20493;-67
2021/01/13 11:29:42;;;;;;;11.77;6.97;;;0.50;75.60;;;;;;5094342;28;20031;-70
2021/01/13 11:32:17;;;;;;;10.95;6.68;;;0.50;75.90;;;;;;5093032;28;20458;-68
2021/01/13 11:34:51;;;;;;;13.45;7.63;;;0.50;75.60;;;;;;5094530;28;20020;-68
2021/01/13 11:37:19;;;;;;;17.30;7.25;;;0.50;75.90;;;;;;5094663;28;20020;-68
2021/01/13 11:40:44;;;;;;;33.20;13.63;;;0.40;75.70;;;;;;5093938;28;20034;-68
2021/01/13 11:43:28;;;;;;;35.70;15.80;;;0.40;75.70;;;;;;5042472;28;20554;-69
2021/01/13 11:46:29;;;;;;;35.88;16.13;;;0.40;75.60;;;;;;5094108;28;20096;-68
2021/01/13 11:49:26;;;;;;;23.52;12.35;;;0.40;75.90;;;;;;5082490;28;20012;-68
2021/01/13 11:51:53;;;;;;;16.85;8.57;;;0.40;76.00;;;;;;5093747;28;20114;-70
2021/01/13 11:54:27;;;;;;;16.17;8.60;;;0.40;76.10;;;;;;5094068;28;20052;-68
2021/01/13 11:56:53;;;;;;;19.08;8.93;;;0.40;76.20;;;;;;5093943;28;20058;-69
2021/01/13 11:59:29;;;;;;;15.32;8.18;;;0.40;76.10;;;;;;5094001;28;20024;-69
2021/01/13 12:02:01;;;;;;;14.93;8.40;;;0.40;76.30;;;;;;5092145;28;20093;-68
2021/01/13 12:04:27;;;;;;;14.20;7.50;;;0.50;76.20;;;;;;5080047;28;20105;-68
2021/01/13 12:06:59;;;;;;;14.23;7.80;;;0.50;76.00;;;;;;5094033;28;20052;-68
2021/01/13 12:09:25;;;;;;;11.80;6.85;;;0.50;76.00;;;;;;5092356;28;20016;-69
2021/01/13 12:11:52;;;;;;;16.10;7.60;;;0.50;75.80;;;;;;5092532;28;20482;-69
2021/01/13 12:14:18;;;;;;;10.20;6.13;;;0.40;75.70;;;;;;5075563;28;20016;-68
2021/01/13 12:16:43;;;;;;;12.93;7.00;;;0.40;75.50;;;;;;5094111;28;20020;-68
2021/01/13 12:19:09;;;;;;;13.60;6.95;;;0.30;75.70;;;;;;5093678;28;20030;-68
2021/01/13 12:21:35;;;;;;;12.95;7.18;;;0.30;75.70;;;;;;5093604;28;20481;-67
2021/01/13 12:24:23;;;;;;;14.23;7.50;;;0.30;75.80;;;;;;5093061;28;20039;-67
2021/01/13 12:26:48;;;;;;;13.18;7.72;;;0.30;76.00;;;;;;5082318;28;20070;-67
2021/01/13 12:29:18;;;;;;;13.45;7.63;;;0.20;75.70;;;;;;5093603;28;20028;-67
2021/01/13 12:31:46;;;;;;;13.60;7.03;;;0.20;75.70;;;;;;5093117;28;20446;-67
2021/01/13 12:34:24;;;;;;;12.30;6.90;;;0.10;75.90;;;;;;5091942;28;20088;-66
2021/01/13 12:36:55;;;;;;;14.18;6.95;;;0.00;76.00;;;;;;5080214;28;20012;-66
2021/01/13 12:39:25;;;;;;;14.25;7.85;;;0.00;76.70;;;;;;5092175;28;20024;-67
2021/01/13 12:41:51;;;;;;;12.32;7.38;;;0.00;76.00;;;;;;5093282;28;20078;-68
2021/01/13 12:44:19;;;;;;;14.80;7.60;;;0.00;76.10;;;;;;5091832;28;20031;-67
2021/01/13 12:46:52;;;;;;;13.45;7.40;;;0.00;76.10;;;;;;5093048;28;20163;-67
2021/01/13 12:49:18;;;;;;;15.70;7.78;;;0.00;76.20;;;;;;5093617;28;20370;-67
2021/01/13 12:51:50;;;;;;;13.30;7.78;;;0.00;76.40;;;;;;5091931;28;20020;-67
2021/01/13 12:54:16;;;;;;;14.15;7.45;;;0.00;76.30;;;;;;5092439;28;20381;-66
2021/01/13 12:56:41;;;;;;;11.80;7.22;;;0.00;76.50;;;;;;5093329;28;20028;-67